Time;durP1;ratioP1;P1;durP2;ratioP2;P2;SDS_P1;SDS_P2;PMS_P1;PMS_P2;Temp;Humidity;BMP_temperature;BMP_pressure;BME280_temperature;BME280_humidity;BME280_pressure;Samples;Min_cycle;Max_cycle;Signal;HPM_P1;HPM_P2
2022/12/31 00:01:58;;;;;;;31.52;17.15;;;2.90;99.90;;;;;;5091633;28;20440;-76
2022/12/31 00:04:23;;;;;;;29.58;17.30;;;2.90;99.90;;;;;;5094738;28;20024;-78
2022/12/31 00:06:49;;;;;;;24.02;16.30;;;2.90;99.90;;;;;;5108577;28;20028;-75
2022/12/31 00:09:15;;;;;;;19.35;13.15;;;2.90;99.90;;;;;;5092474;28;20059;-77
2022/12/31 00:11:41;;;;;;;17.70;12.20;;;2.90;99.90;;;;;;5093998;28;20040;-76
2022/12/31 00:14:07;;;;;;;20.90;14.50;;;2.90;99.90;;;;;;5094083;28;20074;-76
2022/12/31 00:16:35;;;;;;;19.08;14.45;;;2.90;99.90;;;;;;5094064;28;20024;-75
2022/12/31 00:19:02;;;;;;;17.73;10.73;;;3.00;99.90;;;;;;5108256;28;20031;-76
2022/12/31 00:21:32;;;;;;;18.58;11.88;;;3.00;99.90;;;;;;5094698;28;20434;-76
2022/12/31 00:23:58;;;;;;;17.95;12.35;;;3.00;99.90;;;;;;5096237;28;20024;-76
2022/12/31 00:26:27;;;;;;;17.23;12.27;;;2.90;99.90;;;;;;5095265;28;20041;-76
2022/12/31 00:28:54;;;;;;;20.77;14.15;;;3.00;99.90;;;;;;5092034;28;20039;-77
2022/12/31 00:31:23;;;;;;;15.10;10.80;;;3.00;99.90;;;;;;5096123;28;20431;-76
2022/12/31 00:33:52;;;;;;;16.13;11.32;;;3.00;99.90;;;;;;5086213;28;20028;-76
2022/12/31 00:36:48;;;;;;;19.08;11.68;;;3.00;99.90;;;;;;5093690;28;20500;-77
2022/12/31 00:39:14;;;;;;;19.33;13.23;;;3.00;99.90;;;;;;5084291;28;20044;-75
2022/12/31 00:41:42;;;;;;;22.65;13.75;;;3.00;99.90;;;;;;5093704;28;20103;-76
2022/12/31 00:44:10;;;;;;;22.10;13.85;;;2.90;99.90;;;;;;5098090;28;20016;-76
2022/12/31 00:46:36;;;;;;;21.35;13.35;;;2.80;99.90;;;;;;5100954;28;20388;-76
2022/12/31 00:49:02;;;;;;;17.88;11.40;;;2.70;99.90;;;;;;5102778;28;20051;-76
2022/12/31 00:51:28;;;;;;;24.20;14.27;;;2.70;99.90;;;;;;5099373;28;20432;-76
2022/12/31 00:53:57;;;;;;;18.52;11.75;;;2.70;99.90;;;;;;5102797;28;20456;-76
2022/12/31 00:56:25;;;;;;;18.90;12.85;;;2.70;99.90;;;;;;5098845;28;20031;-76
2022/12/31 00:58:52;;;;;;;20.52;12.90;;;2.70;99.90;;;;;;5096590;28;20058;-75
2022/12/31 01:01:19;;;;;;;18.42;13.05;;;2.70;99.90;;;;;;5094251;28;20362;-77
2022/12/31 01:03:47;;;;;;;23.75;14.32;;;2.60;99.90;;;;;;5098653;28;20456;-76
2022/12/31 01:06:13;;;;;;;21.08;14.05;;;2.60;99.90;;;;;;5091858;28;20036;-77
2022/12/31 01:08:39;;;;;;;19.70;12.60;;;2.50;99.90;;;;;;5098249;28;20434;-76
2022/12/31 01:11:18;;;;;;;17.85;11.30;;;2.50;99.90;;;;;;5099863;28;20028;-76
2022/12/31 01:13:44;;;;;;;17.73;11.55;;;2.40;99.90;;;;;;5091906;28;20032;-76
2022/12/31 01:16:12;;;;;;;18.13;12.57;;;2.40;99.90;;;;;;5093850;28;20030;-77
2022/12/31 01:18:39;;;;;;;15.60;11.38;;;2.30;99.90;;;;;;5095088;28;20519;-77
2022/12/31 01:21:07;;;;;;;19.33;11.53;;;2.30;99.90;;;;;;5094463;28;20028;-75
2022/12/31 01:23:33;;;;;;;17.27;10.35;;;2.20;99.90;;;;;;5094628;28;20025;-78
2022/12/31 01:26:01;;;;;;;17.45;10.48;;;2.20;99.90;;;;;;5094398;28;20036;-77
2022/12/31 01:28:27;;;;;;;16.50;11.60;;;2.10;99.90;;;;;;5095174;28;20034;-77
2022/12/31 01:30:53;;;;;;;20.15;11.70;;;2.00;99.90;;;;;;5097053;28;20047;-77
2022/12/31 01:33:19;;;;;;;14.85;10.98;;;2.00;99.90;;;;;;5085440;28;20020;-76
2022/12/31 01:35:45;;;;;;;21.00;12.93;;;1.90;99.90;;;;;;5089579;28;20043;-76
2022/12/31 01:38:11;;;;;;;17.20;12.50;;;1.90;99.90;;;;;;5096394;28;20047;-77
2022/12/31 01:40:38;;;;;;;16.63;11.98;;;2.00;99.90;;;;;;5101145;28;20015;-77
2022/12/31 01:43:12;;;;;;;;;;;2.00;99.90;;;;;;5097684;28;20021;-78
2022/12/31 01:45:40;;;;;;;17.42;11.75;;;2.10;99.90;;;;;;5102034;28;19911;-77
2022/12/31 01:48:11;;;;;;;16.88;12.65;;;2.10;99.90;;;;;;5098207;28;20118;-76
2022/12/31 01:50:39;;;;;;;18.20;13.35;;;2.10;99.90;;;;;;5102600;28;20065;-78
2022/12/31 01:53:07;;;;;;;17.73;12.13;;;2.10;99.90;;;;;;5099142;28;20048;-77
2022/12/31 01:55:43;;;;;;;;;;;2.00;99.90;;;;;;5095019;28;20110;-76
2022/12/31 01:58:29;;;;;;;22.17;13.95;;;2.00;99.90;;;;;;5098749;28;19904;-77
2022/12/31 02:01:00;;;;;;;19.42;13.23;;;2.00;99.90;;;;;;5098487;28;20024;-76
2022/12/31 02:03:27;;;;;;;15.70;12.35;;;2.10;99.90;;;;;;5099272;28;20031;-77
2022/12/31 02:06:06;;;;;;;;;;;2.10;99.90;;;;;;5096016;28;20032;-77
2022/12/31 02:08:33;;;;;;;20.67;13.52;;;2.20;99.90;;;;;;5085280;28;19994;-77
2022/12/31 02:11:01;;;;;;;19.73;13.20;;;2.30;99.90;;;;;;5099539;28;20024;-78
2022/12/31 02:13:27;;;;;;;19.63;13.88;;;2.20;99.90;;;;;;5088743;28;20032;-78
2022/12/31 02:16:15;;;;;;;21.17;13.80;;;2.20;99.90;;;;;;5091746;28;20042;-77
2022/12/31 02:18:59;;;;;;;18.50;12.98;;;2.20;99.90;;;;;;5091984;28;20435;-77
2022/12/31 02:21:31;;;;;;;21.13;14.48;;;2.20;99.90;;;;;;5091936;28;20016;-78
2022/12/31 02:24:07;;;;;;;16.23;12.38;;;2.10;99.90;;;;;;5084493;28;20023;-77
2022/12/31 02:27:00;;;;;;;19.02;13.85;;;2.10;99.90;;;;;;5098452;28;20055;-77
2022/12/31 02:29:52;;;;;;;18.20;12.68;;;2.20;99.90;;;;;;5082395;28;20113;-77
2022/12/31 02:32:30;;;;;;;19.75;13.13;;;2.20;99.90;;;;;;5091792;28;20066;-77
2022/12/31 02:35:04;;;;;;;22.02;14.45;;;2.20;99.90;;;;;;5082940;28;20113;-76
2022/12/31 02:37:32;;;;;;;24.33;14.50;;;2.10;99.90;;;;;;5092463;28;20028;-76
2022/12/31 02:39:59;;;;;;;22.80;14.68;;;2.10;99.90;;;;;;5091473;28;20020;-75
2022/12/31 02:42:25;;;;;;;19.95;12.95;;;2.10;99.90;;;;;;5093405;28;20023;-78
2022/12/31 02:44:50;;;;;;;20.48;13.57;;;1.90;99.90;;;;;;5093805;28;20032;-75
2022/12/31 02:47:47;;;;;;;26.38;14.85;;;1.90;99.90;;;;;;5096252;28;20110;-76
2022/12/31 02:50:22;;;;;;;21.02;12.75;;;1.80;99.90;;;;;;5095925;28;20024;-77
2022/12/31 02:52:54;;;;;;;16.63;13.02;;;1.90;99.90;;;;;;5084098;28;20031;-77
2022/12/31 02:55:28;;;;;;;18.83;13.55;;;1.80;99.90;;;;;;5094755;28;20069;-76
2022/12/31 02:57:54;;;;;;;23.45;14.50;;;1.80;99.90;;;;;;5094429;28;20019;-76
2022/12/31 03:03:06;;;;;;;20.67;13.77;;;1.80;99.90;;;;;;5091528;28;20031;-76
2022/12/31 03:05:33;;;;;;;;;;;1.70;99.90;;;;;;5094629;28;20039;-77
2022/12/31 03:07:59;;;;;;;14.52;10.63;;;1.70;99.90;;;;;;5092369;28;19908;-75
2022/12/31 03:10:24;;;;;;;20.23;12.20;;;1.50;99.90;;;;;;5091130;28;20020;-76
2022/12/31 03:12:50;;;;;;;13.80;10.98;;;1.40;99.90;;;;;;5091411;28;20050;-76
2022/12/31 03:15:22;;;;;;;19.70;12.95;;;1.30;99.90;;;;;;5091969;28;20028;-76
2022/12/31 03:17:52;;;;;;;16.50;12.20;;;1.30;99.90;;;;;;5091239;28;20086;-76
2022/12/31 03:23:06;;;;;;;17.27;13.20;;;1.30;99.90;;;;;;5093694;28;20085;-76
2022/12/31 03:25:33;;;;;;;21.02;12.60;;;1.40;99.90;;;;;;5096184;28;20083;-76
2022/12/31 03:28:01;;;;;;;15.77;12.47;;;1.40;99.90;;;;;;5094483;28;20039;-76
2022/12/31 03:30:28;;;;;;;18.30;11.43;;;1.40;99.90;;;;;;5090143;28;20022;-74
2022/12/31 03:32:57;;;;;;;18.57;12.73;;;1.20;99.90;;;;;;5095992;28;20539;-76
2022/12/31 03:35:25;;;;;;;15.90;11.73;;;1.20;99.90;;;;;;5094773;28;20272;-77
2022/12/31 03:37:52;;;;;;;15.98;12.77;;;1.10;99.90;;;;;;5095202;28;20036;-76
2022/12/31 03:40:20;;;;;;;21.20;12.02;;;1.00;99.90;;;;;;5097332;28;20027;-75
2022/12/31 03:42:45;;;;;;;;;;;1.10;99.90;;;;;;5097012;28;20024;-75
2022/12/31 03:45:12;;;;;;;17.58;12.50;;;1.10;99.90;;;;;;5100980;28;19915;-76
2022/12/31 03:47:38;;;;;;;21.48;12.80;;;1.00;99.90;;;;;;5104539;28;20362;-75
2022/12/31 03:50:06;;;;;;;16.50;11.02;;;1.10;99.90;;;;;;5100507;28;20031;-76
2022/12/31 03:52:32;;;;;;;18.48;13.07;;;1.10;99.90;;;;;;5105190;28;20023;-77
2022/12/31 03:54:58;;;;;;;19.35;13.25;;;1.20;99.90;;;;;;5100423;28;20016;-75
2022/12/31 03:57:24;;;;;;;19.58;12.88;;;1.30;99.90;;;;;;5096988;28;20019;-76
2022/12/31 03:59:50;;;;;;;21.88;13.68;;;1.30;99.90;;;;;;5096110;28;20097;-76
2022/12/31 04:02:16;;;;;;;16.52;12.02;;;1.30;99.90;;;;;;5094002;28;20016;-75
2022/12/31 04:04:41;;;;;;;19.92;12.93;;;1.40;99.90;;;;;;5099368;28;20026;-75
2022/12/31 04:07:07;;;;;;;18.55;12.75;;;1.40;99.90;;;;;;5102664;28;20028;-76
2022/12/31 04:09:33;;;;;;;16.65;12.73;;;1.40;99.90;;;;;;5100504;27;20508;-76
2022/12/31 04:11:59;;;;;;;15.25;12.77;;;1.40;99.90;;;;;;5094459;28;20030;-76
2022/12/31 04:14:25;;;;;;;18.05;12.55;;;1.30;99.90;;;;;;5094419;28;20095;-76
2022/12/31 04:16:51;;;;;;;16.98;12.75;;;1.40;99.90;;;;;;5094644;28;20032;-77
2022/12/31 04:19:16;;;;;;;18.85;13.27;;;1.40;99.90;;;;;;5095042;28;20020;-76
2022/12/31 04:21:42;;;;;;;20.08;14.40;;;1.50;99.90;;;;;;5095074;28;20032;-76
2022/12/31 04:24:08;;;;;;;19.25;13.40;;;1.60;99.90;;;;;;5094614;28;20027;-78
2022/12/31 04:26:34;;;;;;;20.73;12.60;;;1.70;99.90;;;;;;5094847;28;20113;-76
2022/12/31 04:29:00;;;;;;;20.25;11.98;;;1.70;99.90;;;;;;5095339;28;20030;-77
2022/12/31 04:31:26;;;;;;;17.55;13.48;;;1.70;99.90;;;;;;5096140;28;20024;-76
2022/12/31 04:33:52;;;;;;;21.13;13.93;;;1.60;99.90;;;;;;5098627;28;20306;-76
2022/12/31 04:36:17;;;;;;;19.35;12.95;;;1.60;99.90;;;;;;5090923;28;20016;-75
2022/12/31 04:38:43;;;;;;;20.00;12.95;;;1.50;99.90;;;;;;5098086;28;20099;-77
2022/12/31 04:41:19;;;;;;;23.70;14.13;;;1.60;99.90;;;;;;5094715;28;20525;-76
2022/12/31 04:43:50;;;;;;;20.35;13.80;;;1.60;99.90;;;;;;5097591;28;20102;-75
2022/12/31 04:46:19;;;;;;;19.95;14.43;;;1.50;99.90;;;;;;5097794;28;20074;-76
2022/12/31 04:48:46;;;;;;;16.17;12.82;;;1.50;99.90;;;;;;5100188;28;20035;-74
2022/12/31 04:51:16;;;;;;;21.15;13.15;;;1.60;99.90;;;;;;5101338;28;20016;-78
2022/12/31 04:53:42;;;;;;;25.77;16.38;;;1.60;99.90;;;;;;5100530;28;20027;-77
2022/12/31 04:56:09;;;;;;;21.88;13.95;;;1.50;99.90;;;;;;5097340;28;20465;-77
2022/12/31 04:58:35;;;;;;;18.15;13.07;;;1.60;99.90;;;;;;5098313;28;20097;-77
2022/12/31 05:01:01;;;;;;;17.98;11.68;;;1.50;99.90;;;;;;5092905;28;20036;-75
2022/12/31 05:03:27;;;;;;;16.77;12.32;;;1.50;99.90;;;;;;5093150;28;20023;-76
2022/12/31 05:05:53;;;;;;;25.80;14.00;;;1.50;99.90;;;;;;5106000;28;20463;-77
2022/12/31 05:08:20;;;;;;;17.83;12.65;;;1.60;99.90;;;;;;5101380;28;20024;-77
2022/12/31 05:10:48;;;;;;;18.63;12.90;;;1.60;99.90;;;;;;5098905;28;20059;-78
2022/12/31 05:13:14;;;;;;;19.88;13.93;;;1.60;99.90;;;;;;5092861;28;20034;-77
2022/12/31 05:15:41;;;;;;;21.30;12.63;;;1.60;99.90;;;;;;5092843;28;20016;-77
2022/12/31 05:18:08;;;;;;;17.63;12.05;;;1.70;99.90;;;;;;5094240;28;20028;-77
2022/12/31 05:20:34;;;;;;;18.52;12.82;;;1.70;99.90;;;;;;5096296;28;20020;-77
2022/12/31 05:23:01;;;;;;;22.40;14.52;;;1.70;99.90;;;;;;5095002;28;20016;-78
2022/12/31 05:25:27;;;;;;;18.27;11.48;;;1.70;99.90;;;;;;5097652;28;20059;-76
2022/12/31 05:27:53;;;;;;;19.40;12.90;;;1.70;99.90;;;;;;5094760;28;20103;-77
2022/12/31 05:30:19;;;;;;;16.05;13.30;;;1.70;99.90;;;;;;5096276;28;20100;-78
2022/12/31 05:32:45;;;;;;;19.45;15.05;;;1.70;99.90;;;;;;5095291;28;20069;-77
2022/12/31 05:35:11;;;;;;;17.52;11.95;;;1.70;99.90;;;;;;5094144;28;20040;-77
2022/12/31 05:37:37;;;;;;;20.70;12.65;;;1.70;99.90;;;;;;5095174;28;20438;-77
2022/12/31 05:40:04;;;;;;;25.95;13.00;;;1.80;99.90;;;;;;5096964;28;20020;-78
2022/12/31 05:42:30;;;;;;;22.70;13.60;;;1.80;99.90;;;;;;5096313;28;20020;-79
2022/12/31 05:44:55;;;;;;;17.90;13.20;;;1.80;99.90;;;;;;5091873;28;20546;-77
2022/12/31 05:47:22;;;;;;;17.40;12.63;;;1.80;99.90;;;;;;5092273;28;20074;-76
2022/12/31 05:49:47;;;;;;;20.42;12.73;;;1.80;99.90;;;;;;5097583;28;20473;-75
2022/12/31 05:52:13;;;;;;;17.83;12.45;;;1.80;99.90;;;;;;5097443;28;20027;-75
2022/12/31 05:54:39;;;;;;;19.73;12.88;;;1.80;99.90;;;;;;5099794;28;20023;-77
2022/12/31 05:57:05;;;;;;;16.70;11.65;;;1.80;99.90;;;;;;5100304;28;20389;-78
2022/12/31 05:59:31;;;;;;;22.30;12.40;;;1.80;99.90;;;;;;5095818;28;20028;-76
2022/12/31 06:01:57;;;;;;;16.80;12.75;;;1.80;99.90;;;;;;5090156;28;20055;-77
2022/12/31 06:04:23;;;;;;;16.98;13.30;;;1.90;99.90;;;;;;5105694;28;20149;-78
2022/12/31 06:06:49;;;;;;;15.88;11.40;;;1.90;99.90;;;;;;5096946;28;20170;-77
2022/12/31 06:09:17;;;;;;;16.63;12.50;;;1.90;99.90;;;;;;5096757;28;20485;-78
2022/12/31 06:11:43;;;;;;;;;;;1.90;99.90;;;;;;5093886;28;20022;-80
2022/12/31 06:14:08;;;;;;;17.40;11.02;;;1.90;99.90;;;;;;5092413;28;20412;-78
2022/12/31 06:16:34;;;;;;;14.02;9.57;;;2.00;99.90;;;;;;5092803;28;20028;-78
2022/12/31 06:19:01;;;;;;;16.45;10.82;;;2.00;99.90;;;;;;5093187;28;20044;-77
2022/12/31 06:21:29;;;;;;;16.52;11.77;;;2.00;99.90;;;;;;5093404;28;20028;-78
2022/12/31 06:23:55;;;;;;;14.43;11.45;;;2.00;99.90;;;;;;5092905;28;20030;-76
2022/12/31 06:26:21;;;;;;;15.35;10.27;;;2.00;99.90;;;;;;5093072;28;20066;-77
2022/12/31 06:28:46;;;;;;;16.95;11.77;;;2.00;99.90;;;;;;5093427;28;20108;-75
2022/12/31 06:31:13;;;;;;;18.73;11.15;;;2.00;99.90;;;;;;5092762;28;20131;-75
2022/12/31 06:33:40;;;;;;;16.33;11.23;;;2.00;99.90;;;;;;5090148;28;20032;-78
2022/12/31 06:36:08;;;;;;;12.68;9.75;;;2.00;99.90;;;;;;5097600;28;20028;-76
2022/12/31 06:38:37;;;;;;;14.15;10.93;;;1.90;99.90;;;;;;5096253;28;20106;-77
2022/12/31 06:41:07;;;;;;;15.20;9.88;;;2.00;99.90;;;;;;5096274;28;20111;-77
2022/12/31 06:43:34;;;;;;;16.08;11.35;;;2.00;99.90;;;;;;5092399;28;20515;-75
2022/12/31 06:46:01;;;;;;;15.05;10.30;;;2.00;99.90;;;;;;5103692;28;20046;-76
2022/12/31 06:48:27;;;;;;;8.27;6.65;;;2.00;99.90;;;;;;5102824;28;20024;-76
2022/12/31 06:50:53;;;;;;;11.38;9.25;;;2.00;99.90;;;;;;5107731;28;20077;-77
2022/12/31 06:53:18;;;;;;;14.15;10.15;;;2.00;99.90;;;;;;5110495;28;20028;-76
2022/12/31 06:55:46;;;;;;;15.93;10.65;;;2.10;99.90;;;;;;5106250;28;20066;-76
2022/12/31 06:58:12;;;;;;;;;;;2.10;99.90;;;;;;5094015;28;20017;-77
2022/12/31 07:01:15;;;;;;;12.65;9.93;;;2.10;99.90;;;;;;5093005;28;19930;-77
2022/12/31 07:03:53;;;;;;;9.57;7.68;;;2.10;99.90;;;;;;5037701;28;20044;-78
2022/12/31 07:06:33;;;;;;;10.07;6.68;;;2.00;99.90;;;;;;5088116;28;20036;-78
2022/12/31 07:09:09;;;;;;;11.50;6.90;;;2.10;99.90;;;;;;5102169;28;20024;-79
2022/12/31 07:11:53;;;;;;;9.93;8.35;;;2.10;99.90;;;;;;5095256;28;20024;-78
2022/12/31 07:14:27;;;;;;;11.88;8.40;;;2.10;99.90;;;;;;5082477;28;20020;-78
2022/12/31 07:17:35;;;;;;;11.70;8.43;;;2.10;99.90;;;;;;5093641;28;20066;-76
2022/12/31 07:20:04;;;;;;;7.40;6.63;;;2.10;99.90;;;;;;5050115;28;20077;-77
2022/12/31 07:22:30;;;;;;;9.73;7.68;;;2.10;99.90;;;;;;5099050;28;20484;-78
2022/12/31 07:24:56;;;;;;;11.20;8.27;;;2.10;99.90;;;;;;5113763;28;20055;-77
2022/12/31 07:27:40;;;;;;;10.63;7.93;;;2.10;99.90;;;;;;5112275;28;20036;-77
2022/12/31 07:30:14;;;;;;;12.07;8.27;;;2.10;99.90;;;;;;5114388;28;20024;-76
2022/12/31 07:33:08;;;;;;;12.77;8.77;;;2.20;99.90;;;;;;5110980;28;20027;-78
2022/12/31 07:35:40;;;;;;;12.10;8.95;;;2.20;99.90;;;;;;5099229;28;20067;-76
2022/12/31 07:38:27;;;;;;;11.85;7.50;;;2.20;99.90;;;;;;5095627;28;20392;-76
2022/12/31 07:41:03;;;;;;;11.68;8.48;;;2.20;99.90;;;;;;5096878;28;20044;-77
2022/12/31 07:43:34;;;;;;;11.73;9.18;;;2.20;99.90;;;;;;5096673;28;20024;-78
2022/12/31 07:46:27;;;;;;;11.93;8.32;;;2.30;99.90;;;;;;5096499;28;20366;-76
2022/12/31 07:48:53;;;;;;;10.32;7.50;;;2.30;99.90;;;;;;5097580;28;20024;-77
2022/12/31 07:51:19;;;;;;;10.00;7.40;;;2.40;99.90;;;;;;5098067;28;20028;-77
2022/12/31 07:53:45;;;;;;;8.25;4.22;;;2.40;99.90;;;;;;5095496;28;20045;-78
2022/12/31 07:56:12;;;;;;;10.00;7.82;;;2.40;99.90;;;;;;5100337;28;20034;-79
2022/12/31 07:58:57;;;;;;;11.85;8.20;;;2.40;99.90;;;;;;5096618;28;20445;-78
2022/12/31 08:01:52;;;;;;;13.38;8.65;;;2.40;99.90;;;;;;5101793;28;20016;-76
2022/12/31 08:04:24;;;;;;;18.70;8.80;;;2.40;99.90;;;;;;5103283;27;20063;-78
2022/12/31 08:07:03;;;;;;;10.98;8.05;;;2.40;99.90;;;;;;5106210;28;20562;-77
2022/12/31 08:09:49;;;;;;;10.02;7.55;;;2.40;99.90;;;;;;5107473;28;20030;-75
2022/12/31 08:12:17;;;;;;;11.00;8.13;;;2.50;99.90;;;;;;5096118;28;20134;-76
2022/12/31 08:14:44;;;;;;;;;;;2.40;99.90;;;;;;5102332;28;20032;-76
2022/12/31 08:17:15;;;;;;;12.20;7.18;;;2.40;99.90;;;;;;5102466;28;19911;-77
2022/12/31 08:19:42;;;;;;;9.65;7.75;;;2.40;99.90;;;;;;5101769;28;20028;-79
2022/12/31 08:22:13;;;;;;;11.02;8.60;;;2.50;99.90;;;;;;5101878;28;20020;-76
2022/12/31 08:24:57;;;;;;;15.50;7.88;;;2.50;99.90;;;;;;5108006;28;20030;-77
2022/12/31 08:27:55;;;;;;;22.10;9.73;;;2.60;99.90;;;;;;5106645;28;20071;-78
2022/12/31 08:30:22;;;;;;;12.40;7.80;;;2.60;99.90;;;;;;5102634;28;20047;-78
2022/12/31 08:33:33;;;;;;;11.27;8.60;;;2.60;99.90;;;;;;5094421;28;20043;-76
2022/12/31 08:36:18;;;;;;;9.40;6.15;;;2.60;99.90;;;;;;5051939;28;20097;-77
2022/12/31 08:39:06;;;;;;;10.63;7.68;;;2.60;99.90;;;;;;5095560;28;20024;-80
2022/12/31 08:41:43;;;;;;;11.18;7.28;;;2.70;99.90;;;;;;5093504;28;20125;-80
2022/12/31 08:44:37;;;;;;;13.23;8.18;;;2.80;99.90;;;;;;5095478;28;20106;-79
2022/12/31 08:47:21;;;;;;;10.90;7.03;;;2.80;99.90;;;;;;5093119;28;20443;-79
2022/12/31 08:49:47;;;;;;;13.23;8.68;;;2.70;99.90;;;;;;5095829;28;20020;-77
2022/12/31 08:52:24;;;;;;;13.68;7.75;;;2.70;99.90;;;;;;5097535;28;20035;-79
2022/12/31 08:54:50;;;;;;;9.90;8.13;;;2.70;99.90;;;;;;5097513;28;20465;-79
2022/12/31 08:57:38;;;;;;;10.52;8.13;;;2.60;99.90;;;;;;5098788;28;20118;-78
2022/12/31 09:00:06;;;;;;;18.02;10.27;;;2.60;99.90;;;;;;5105709;28;20477;-77
2022/12/31 09:02:55;;;;;;;13.38;9.57;;;2.60;99.90;;;;;;5107589;28;20030;-77
2022/12/31 09:05:27;;;;;;;13.98;9.20;;;2.70;99.90;;;;;;5091723;28;20114;-77
2022/12/31 09:08:17;;;;;;;11.32;9.13;;;2.60;99.90;;;;;;5106972;28;20084;-77
2022/12/31 09:10:58;;;;;;;12.95;8.75;;;2.60;99.90;;;;;;5100680;28;20026;-76
2022/12/31 09:13:43;;;;;;;11.40;9.07;;;2.60;99.90;;;;;;5093343;28;20502;-78
2022/12/31 09:16:35;;;;;;;11.40;7.60;;;2.70;99.90;;;;;;5103453;28;20350;-77
2022/12/31 09:19:01;;;;;;;11.13;7.75;;;2.70;99.90;;;;;;5094648;28;20051;-78
2022/12/31 09:21:27;;;;;;;12.73;8.95;;;2.70;99.90;;;;;;5103713;28;20510;-77
2022/12/31 09:23:53;;;;;;;11.60;9.05;;;2.70;99.90;;;;;;5107788;28;20110;-75
2022/12/31 09:26:31;;;;;;;10.75;7.28;;;2.70;99.90;;;;;;5109631;28;20051;-77
2022/12/31 09:29:31;;;;;;;10.68;7.50;;;2.70;99.90;;;;;;5109875;28;20055;-79
2022/12/31 09:32:34;;;;;;;13.48;8.77;;;2.70;99.90;;;;;;5098248;28;20048;-79
2022/12/31 09:35:06;;;;;;;11.40;7.53;;;2.70;99.90;;;;;;5087281;28;20385;-81
2022/12/31 09:37:46;;;;;;;12.30;7.88;;;2.70;99.90;;;;;;5092627;28;20528;-84
2022/12/31 09:40:39;;;;;;;11.82;8.75;;;2.70;99.90;;;;;;5093505;28;20024;-82
2022/12/31 09:43:11;;;;;;;13.38;9.23;;;2.70;99.90;;;;;;5107048;28;20020;-81
2022/12/31 09:46:02;;;;;;;9.10;6.78;;;2.80;99.90;;;;;;5115557;28;20024;-83
2022/12/31 09:49:09;;;;;;;10.00;7.13;;;2.90;99.90;;;;;;5101510;28;20028;-84
2022/12/31 09:52:04;;;;;;;12.88;8.20;;;2.80;99.90;;;;;;5064226;28;20050;-82
2022/12/31 09:54:56;;;;;;;9.40;6.43;;;2.80;99.90;;;;;;5092314;28;20046;-82
2022/12/31 09:57:39;;;;;;;8.68;6.55;;;2.90;99.90;;;;;;5091743;28;20012;-82
2022/12/31 10:00:16;;;;;;;10.02;6.55;;;2.80;99.90;;;;;;5091527;28;20071;-81
2022/12/31 10:03:10;;;;;;;10.63;7.07;;;2.80;99.90;;;;;;5092383;28;20503;-80
2022/12/31 10:06:05;;;;;;;8.43;6.15;;;2.70;99.90;;;;;;5092328;28;20070;-79
2022/12/31 10:09:15;;;;;;;8.23;6.70;;;2.70;99.90;;;;;;5110568;28;20042;-86
2022/12/31 10:11:58;;;;;;;10.50;6.05;;;2.70;99.90;;;;;;5010536;28;20172;-83
2022/12/31 10:14:41;;;;;;;8.55;6.13;;;2.70;99.90;;;;;;5078302;28;20070;-82
2022/12/31 10:17:33;;;;;;;9.88;6.95;;;2.70;99.90;;;;;;5094895;28;20362;-81
2022/12/31 10:20:23;;;;;;;14.40;8.85;;;2.70;99.90;;;;;;5058441;28;20066;-82
2022/12/31 10:23:24;;;;;;;10.48;6.90;;;2.70;99.90;;;;;;5093279;28;20189;-80
2022/12/31 10:26:08;;;;;;;9.27;6.72;;;2.70;99.90;;;;;;5099065;28;20068;-80
2022/12/31 10:28:48;;;;;;;14.80;7.95;;;2.70;99.90;;;;;;5095849;28;20035;-80
2022/12/31 10:31:21;;;;;;;12.25;7.80;;;2.60;99.90;;;;;;5088594;28;20020;-81
2022/12/31 10:34:21;;;;;;;8.80;7.03;;;2.60;99.90;;;;;;5095973;28;20106;-81
2022/12/31 10:36:58;;;;;;;13.57;8.15;;;2.60;99.90;;;;;;5103750;28;20090;-82
2022/12/31 10:39:46;;;;;;;13.35;8.57;;;2.60;99.90;;;;;;5102456;28;20023;-81
2022/12/31 10:42:46;;;;;;;12.70;8.05;;;2.60;99.90;;;;;;5107815;28;20041;-76
2022/12/31 10:45:31;;;;;;;11.85;7.68;;;2.60;99.90;;;;;;5100387;28;20056;-78
2022/12/31 10:48:21;;;;;;;14.80;7.20;;;2.60;99.90;;;;;;5097486;28;20036;-81
2022/12/31 10:50:50;;;;;;;11.82;7.25;;;2.60;99.90;;;;;;5094709;28;20032;-80
2022/12/31 10:53:49;;;;;;;13.82;7.38;;;2.60;99.90;;;;;;5074474;28;20055;-79
2022/12/31 10:56:21;;;;;;;10.50;6.20;;;2.60;99.90;;;;;;5096413;28;20017;-79
2022/12/31 10:59:24;;;;;;;9.73;6.03;;;2.70;99.90;;;;;;5088942;28;20032;-80
2022/12/31 11:02:14;;;;;;;7.20;4.25;;;2.70;99.90;;;;;;5080269;28;20031;-79
2022/12/31 11:04:42;;;;;;;8.50;5.50;;;2.70;99.90;;;;;;5094004;28;20468;-80
2022/12/31 11:07:33;;;;;;;10.68;6.15;;;2.70;99.90;;;;;;5096297;28;20094;-79
2022/12/31 11:10:47;;;;;;;10.23;5.30;;;2.70;99.90;;;;;;5091275;28;20380;-80
2022/12/31 11:13:36;;;;;;;8.27;5.28;;;2.80;99.90;;;;;;5091943;28;20394;-79
2022/12/31 11:16:14;;;;;;;8.73;6.07;;;2.70;99.90;;;;;;5086991;28;20027;-80
2022/12/31 11:19:11;;;;;;;11.65;7.07;;;2.70;99.90;;;;;;5095730;28;20031;-80
2022/12/31 11:21:51;;;;;;;10.75;7.10;;;2.80;99.90;;;;;;5091355;28;20067;-80
2022/12/31 11:24:39;;;;;;;14.93;8.43;;;2.80;99.90;;;;;;5091630;28;20017;-80
2022/12/31 11:27:10;;;;;;;;;;;2.80;99.90;;;;;;5090278;28;20068;-79
2022/12/31 11:29:48;;;;;;;13.27;7.40;;;2.80;99.90;;;;;;5091391;28;19908;-81
2022/12/31 11:32:52;;;;;;;14.35;7.50;;;2.80;99.90;;;;;;5090979;28;20028;-79
2022/12/31 11:35:37;;;;;;;10.80;6.47;;;2.90;99.90;;;;;;5091234;28;20020;-80
2022/12/31 11:38:30;;;;;;;11.40;7.70;;;2.90;99.90;;;;;;5078031;28;20012;-79
2022/12/31 11:41:12;;;;;;;9.52;7.05;;;2.90;99.90;;;;;;5082797;28;20028;-80
2022/12/31 11:43:50;;;;;;;9.52;6.05;;;2.90;99.90;;;;;;5091734;28;20024;-80
2022/12/31 11:46:23;;;;;;;11.00;7.07;;;2.90;99.90;;;;;;5091153;28;20035;-80
2022/12/31 11:49:18;;;;;;;12.57;7.72;;;2.90;99.90;;;;;;5091637;28;20378;-80
2022/12/31 11:51:59;;;;;;;8.98;6.35;;;2.90;99.90;;;;;;5076822;28;20035;-79
2022/12/31 11:54:46;;;;;;;7.97;4.95;;;2.90;99.90;;;;;;5094542;28;20059;-79
2022/12/31 11:57:34;;;;;;;8.85;6.00;;;2.80;99.90;;;;;;5094663;28;20024;-80
2022/12/31 12:00:22;;;;;;;9.23;5.82;;;2.80;99.90;;;;;;5094177;28;20384;-80
2022/12/31 12:03:00;;;;;;;6.68;5.85;;;2.80;99.90;;;;;;5093908;28;20048;-79
2022/12/31 12:05:27;;;;;;;9.48;5.07;;;2.80;99.90;;;;;;5094713;28;20392;-79
2022/12/31 12:07:53;;;;;;;7.35;6.00;;;2.70;99.90;;;;;;5094257;28;20552;-79
2022/12/31 12:10:41;;;;;;;6.95;6.20;;;2.70;99.90;;;;;;5092870;28;20035;-79
2022/12/31 12:13:31;;;;;;;11.07;7.97;;;2.80;99.90;;;;;;5094793;28;20028;-81
2022/12/31 12:16:00;;;;;;;13.60;7.20;;;2.70;99.90;;;;;;5093896;28;20032;-81
2022/12/31 12:18:35;;;;;;;9.65;6.57;;;2.80;99.90;;;;;;5094200;28;20028;-81
2022/12/31 12:21:17;;;;;;;11.65;6.03;;;2.80;99.90;;;;;;5094244;28;20538;-78
2022/12/31 12:24:05;;;;;;;14.63;8.57;;;2.80;99.90;;;;;;5092962;28;20024;-80
2022/12/31 12:26:40;;;;;;;7.75;5.50;;;2.80;99.90;;;;;;5093912;28;20040;-80
2022/12/31 12:29:21;;;;;;;7.18;5.70;;;2.80;99.90;;;;;;5092888;28;20021;-81
2022/12/31 12:32:00;;;;;;;8.73;5.25;;;2.80;99.90;;;;;;5094351;28;20034;-82
2022/12/31 12:34:40;;;;;;;10.88;6.72;;;2.80;99.90;;;;;;5096659;28;20052;-79
2022/12/31 12:37:23;;;;;;;9.57;5.28;;;2.90;99.90;;;;;;5098455;28;20059;-80
2022/12/31 12:40:08;;;;;;;7.60;6.15;;;2.90;99.90;;;;;;5093221;28;20020;-80
2022/12/31 12:42:34;;;;;;;10.27;6.93;;;2.80;99.90;;;;;;5094055;28;20052;-79
2022/12/31 12:45:14;;;;;;;11.80;6.22;;;2.80;99.90;;;;;;5093583;28;20500;-80
2022/12/31 12:47:42;;;;;;;8.00;5.68;;;2.90;99.90;;;;;;5093332;28;20036;-80
2022/12/31 12:50:20;;;;;;;7.47;5.25;;;3.00;99.90;;;;;;5093509;28;20027;-80
2022/12/31 12:53:08;;;;;;;7.13;5.03;;;3.00;99.90;;;;;;5091419;28;20028;-79
2022/12/31 12:55:54;;;;;;;8.18;5.80;;;3.00;99.90;;;;;;5093201;28;20020;-80
2022/12/31 12:58:31;;;;;;;5.88;4.85;;;3.00;99.90;;;;;;5077768;28;20111;-80
2022/12/31 13:01:38;;;;;;;8.50;4.90;;;2.90;99.90;;;;;;5093845;28;20032;-81
2022/12/31 13:04:32;;;;;;;6.00;4.70;;;2.90;99.90;;;;;;5050849;28;20036;-81
2022/12/31 13:07:25;;;;;;;4.72;3.47;;;2.80;99.90;;;;;;5080105;28;20465;-81
2022/12/31 13:10:10;;;;;;;7.78;4.80;;;2.80;99.90;;;;;;5092661;28;20024;-80
2022/12/31 13:13:00;;;;;;;5.80;4.45;;;2.80;99.90;;;;;;5080448;28;20016;-80
2022/12/31 13:15:47;;;;;;;6.72;4.18;;;2.70;99.90;;;;;;5091523;28;20138;-80
2022/12/31 13:18:16;;;;;;;7.18;5.03;;;2.70;99.90;;;;;;5091241;28;20384;-81
2022/12/31 13:20:54;;;;;;;5.68;4.55;;;2.60;99.90;;;;;;5092498;28;20012;-79
2022/12/31 13:24:03;;;;;;;7.97;4.05;;;2.60;99.90;;;;;;5087757;28;20449;-79
2022/12/31 13:26:40;;;;;;;7.13;4.30;;;2.60;99.90;;;;;;5090336;28;20043;-79
2022/12/31 13:29:15;;;;;;;13.70;4.87;;;2.60;99.90;;;;;;5112825;28;20020;-81
2022/12/31 13:31:41;;;;;;;8.55;5.85;;;2.60;99.90;;;;;;5111691;28;20583;-81